Aérodrome :
LOGIN :

S'inscrire | Disclaimer

   EN    FR    IT 

 










Légende :    VFR   VFR Marginal   IFR   IFR Intensif   IFR Très Intensif
Visi : 
Plafond : 
>= 8 km
>= 3000ft
5 à 8 km
1000 à 3000 ft
1500m à 5 km
500 à 1000 ft
800 à 1500m
200 à 500 ft
< 800m
< 200 ft
Symboles :   Orages  Brouillard  Fortes neiges  Fortes précipitations  Vent > 20 kt
SIGMETs :   Divers  Orages  Givrage  Turbulence  Onde Orograph.  Cendres Volcan.






- Altitude de l'aérodrome : 162 ft
- Code IATA : BOD


LFBD - Bordeaux / Merignac

DERNIER METAR :
  • 231430Z AUTO 28013KT CAVOK 10/04 Q1001 TEMPO 27015G35KT 3000 RA BKN030TCU

METARs EXPIRÉS :
  • 231400Z AUTO 28014KT 9999 FEW035 OVC090 10/04 Q1001 TEMPO 27015G35KT BKN030TCU
  • 231330Z AUTO 29018KT 9999 BKN029 BKN037 OVC084 10/05 Q1001 TEMPO 27015G35KT BKN030TCU
  • 231300Z AUTO 28015KT 9999 BKN031 BKN038 OVC092 11/05 Q1001 TEMPO 27015G35KT BKN030TCU
  • 231230Z AUTO 27017KT 9999 BKN033 BKN041 OVC086 11/06 Q1001 TEMPO 27015G35KT BKN030TCU
  • 231200Z AUTO 27018KT 9999 SCT037 SCT056 BKN096 11/05 Q1001 TEMPO 27015G35KT BKN030TCU
  • 231130Z AUTO 28021KT 9999 FEW030 SCT035 BKN052 11/05 Q1001 TEMPO BKN030TCU BECMG 27015G25KT

TAF TAF LFBD
Valide du 23 à 12h jusqu'au 24 à 18h UTC


231100Z 2312/2418 27015G25KT 9999 BKN030 TX11/2412Z TN04/2406Z
TEMPO 2312/2316 27015G35KT -SHRA BKN030TCU
BECMG 2314/2317 29005KT
TEMPO 2316/2404 3000 RA OVC010
TEMPO 2404/2411 4000 -RA
BECMG 2404/2406 20010KT
BECMG 2410/2412 27015KT
TEMPO 2411/2418 28015G30KT 4000 SHRA BKN015TCU BKN020CB
ATIS : +33 5 57 92 81 04



MET'MAP, la Météo Aéronautique d'un coup d'oeil ! - Copyright ORBIFLY Décembre 2007 - Disclaimer

ORBIFLY MET'MAP TEAM :

Programmation & Développement : Alexandra Zaïnal
Sur une idée originale de : Baudouin d'Aumeries
Assistance à la programmation : Marc-Olivier Méhu
Soutien technique & logistique : Manuel Goepfert

Contact : metmap@orbifly.com




SOURCES & CREDITS :

   NOAA